createdAt,value
2024-02-14T00:01:53.267Z,9.77
2024-02-14T00:04:55.717Z,9.27
2024-02-14T00:07:57.802Z,7.90
2024-02-14T00:11:00.620Z,9.10
2024-02-14T00:14:02.993Z,8.88
2024-02-14T00:17:06.242Z,9.77
2024-02-14T00:20:11.174Z,8.57
2024-02-14T00:23:13.499Z,8.02
2024-02-14T00:26:15.804Z,6.90
2024-02-14T00:29:18.156Z,8.23
2024-02-14T00:32:20.462Z,7.95
2024-02-14T00:35:23.891Z,7.75
2024-02-14T00:38:26.359Z,7.25
2024-02-14T00:41:30.993Z,7.28
2024-02-14T00:44:33.444Z,8.27
2024-02-14T00:47:36.070Z,7.50
2024-02-14T00:50:39.089Z,7.45
2024-02-14T00:53:41.685Z,6.95
2024-02-14T00:56:44.087Z,6.22
2024-02-14T00:59:46.178Z,6.70
2024-02-14T01:02:48.611Z,6.00
2024-02-14T01:05:51.194Z,6.18
2024-02-14T01:08:53.617Z,6.32
2024-02-14T01:11:55.643Z,6.45
2024-02-14T01:14:58.222Z,6.22
2024-02-14T01:18:01.342Z,6.57
2024-02-14T01:21:03.974Z,6.70
2024-02-14T01:24:06.823Z,6.30
2024-02-14T01:27:09.852Z,7.32
2024-02-14T01:30:12.840Z,6.65
2024-02-14T01:33:17.503Z,7.07
2024-02-14T01:36:19.986Z,6.93
2024-02-14T01:39:23.137Z,6.63
2024-02-14T01:42:25.500Z,6.95
2024-02-14T01:45:28.840Z,6.45
2024-02-14T01:48:31.078Z,6.10
2024-02-14T01:51:33.993Z,6.88
2024-02-14T01:54:36.687Z,6.47
2024-02-14T01:57:40.912Z,6.32
2024-02-14T02:00:43.863Z,7.35
2024-02-14T02:03:46.543Z,6.65
2024-02-14T02:06:49.151Z,6.55
2024-02-14T02:09:51.583Z,6.88
2024-02-14T02:13:00.372Z,6.68
2024-02-14T02:16:05.959Z,6.63
2024-02-14T02:19:10.635Z,6.40
2024-02-14T02:22:12.888Z,6.50
2024-02-14T02:25:15.648Z,6.07
2024-02-14T02:28:18.238Z,5.72
2024-02-14T02:31:21.196Z,6.43
2024-02-14T02:34:23.649Z,5.57
2024-02-14T02:37:30.932Z,6.30
2024-02-14T02:40:33.037Z,6.00
2024-02-14T02:43:35.618Z,5.45
2024-02-14T02:46:38.287Z,5.40
2024-02-14T02:49:40.689Z,5.60
2024-02-14T02:52:43.206Z,5.85
2024-02-14T02:55:45.510Z,5.95
2024-02-14T02:58:49.703Z,5.57
2024-02-14T03:01:51.968Z,5.68
2024-02-14T03:04:54.437Z,5.38
2024-02-14T03:07:59.642Z,6.13
2024-02-14T03:11:07.129Z,5.75
2024-02-14T03:14:09.878Z,5.65
2024-02-14T03:17:12.632Z,5.38
2024-02-14T03:20:17.405Z,5.15
2024-02-14T03:23:21.058Z,6.18
2024-02-14T03:26:23.167Z,4.93
2024-02-14T03:29:26.050Z,6.72
2024-02-14T03:32:28.638Z,5.60
2024-02-14T03:35:31.002Z,5.82
2024-02-14T03:38:33.196Z,6.03
2024-02-14T03:41:35.679Z,5.45
2024-02-14T03:44:39.263Z,5.55
2024-02-14T03:47:43.197Z,5.05
2024-02-14T03:50:45.531Z,5.53
2024-02-14T03:53:47.917Z,5.72
2024-02-14T03:56:50.560Z,5.70
2024-02-14T03:59:53.606Z,6.28
2024-02-14T04:03:00.211Z,9.60
2024-02-14T04:06:02.939Z,5.70
2024-02-14T04:09:05.704Z,7.20
2024-02-14T04:12:08.369Z,6.57
2024-02-14T04:15:10.702Z,6.57
2024-02-14T04:18:13.882Z,6.10
2024-02-14T04:21:16.394Z,5.63
2024-02-14T04:24:18.836Z,5.90
2024-02-14T04:27:21.166Z,5.70
2024-02-14T04:30:23.292Z,5.47
2024-02-14T04:33:26.828Z,7.18
2024-02-14T04:36:31.067Z,5.15
2024-02-14T04:39:33.452Z,4.90
2024-02-14T04:42:35.595Z,7.85
2024-02-14T04:45:37.952Z,8.98
2024-02-14T04:48:40.765Z,6.63
2024-02-14T04:51:43.262Z,8.05
2024-02-14T04:54:45.322Z,7.00
2024-02-14T04:57:47.727Z,6.82
2024-02-14T05:00:50.166Z,6.20
2024-02-14T05:03:52.500Z,6.40
2024-02-14T05:06:58.414Z,6.53
2024-02-14T05:10:01.839Z,7.05
2024-02-14T05:13:04.303Z,6.25
2024-02-14T05:16:07.504Z,5.70
2024-02-14T05:19:11.066Z,5.35
2024-02-14T05:22:13.617Z,5.63
2024-02-14T05:25:15.904Z,6.47
2024-02-14T05:28:19.963Z,6.40
2024-02-14T05:31:22.415Z,6.22
2024-02-14T05:34:25.128Z,5.38
2024-02-14T05:37:30.425Z,5.35
2024-02-14T05:40:32.757Z,4.72
2024-02-14T05:43:35.747Z,5.75
2024-02-14T05:46:37.879Z,5.40
2024-02-14T05:49:41.395Z,5.70
2024-02-14T05:52:43.850Z,5.20
2024-02-14T05:55:46.095Z,5.07
2024-02-14T05:58:48.477Z,5.60
2024-02-14T06:01:51.013Z,5.53
2024-02-14T06:04:53.143Z,5.45
2024-02-14T06:07:55.444Z,5.55
2024-02-14T06:10:57.529Z,6.10
2024-02-14T06:13:59.849Z,6.15
2024-02-14T06:17:02.392Z,5.63
2024-02-14T06:20:08.536Z,5.90
2024-02-14T06:23:11.122Z,5.63
2024-02-14T06:26:13.509Z,5.85
2024-02-14T06:29:15.618Z,5.72
2024-02-14T06:32:18.020Z,5.35
2024-02-14T06:35:22.135Z,5.60
2024-02-14T06:38:24.661Z,5.78
2024-02-14T06:41:27.156Z,5.65
2024-02-14T06:44:29.326Z,6.03
2024-02-14T06:47:31.971Z,5.60
2024-02-14T06:50:34.528Z,5.40
2024-02-14T06:53:37.151Z,6.07
2024-02-14T06:56:39.919Z,6.18
2024-02-14T06:59:43.486Z,5.70
2024-02-14T07:02:48.395Z,6.20
2024-02-14T07:05:50.568Z,6.40
2024-02-14T07:08:52.936Z,6.15
2024-02-14T07:11:57.509Z,5.82
2024-02-14T07:14:59.974Z,6.43
2024-02-14T07:18:02.260Z,6.43
2024-02-14T07:21:06.930Z,7.32
2024-02-14T07:24:09.498Z,7.13
2024-02-14T07:27:13.124Z,9.35
2024-02-14T07:30:15.896Z,8.70
2024-02-14T07:33:18.517Z,7.82
2024-02-14T07:36:20.967Z,8.43
2024-02-14T07:39:23.274Z,9.43
2024-02-14T07:42:25.712Z,10.65
2024-02-14T07:45:27.981Z,11.43
2024-02-14T07:48:30.672Z,12.95
2024-02-14T07:51:37.827Z,12.70
2024-02-14T07:54:40.307Z,12.57
2024-02-14T07:57:43.517Z,14.77
2024-02-14T08:00:45.768Z,20.67
2024-02-14T08:03:48.258Z,37.88
2024-02-14T08:06:50.630Z,46.50
2024-02-14T08:09:52.770Z,31.80
2024-02-14T08:12:54.804Z,28.75
2024-02-14T08:15:57.324Z,28.88
2024-02-14T08:19:02.747Z,27.17
2024-02-14T08:22:07.007Z,29.38
2024-02-14T08:25:10.036Z,31.70
2024-02-14T08:28:12.438Z,25.60
2024-02-14T08:31:14.502Z,22.52
2024-02-14T08:34:20.295Z,21.48
2024-02-14T08:37:22.567Z,20.40
2024-02-14T08:40:24.791Z,18.00
2024-02-14T08:43:27.683Z,11.85
2024-02-14T08:46:30.011Z,11.68
2024-02-14T08:49:32.170Z,10.85
2024-02-14T08:52:34.703Z,9.75
2024-02-14T08:55:38.000Z,11.77
2024-02-14T08:58:40.123Z,12.35
2024-02-14T09:01:42.292Z,12.93
2024-02-14T09:04:45.509Z,11.85
2024-02-14T09:07:47.634Z,9.05
2024-02-14T09:10:50.074Z,8.20
2024-02-14T09:13:55.461Z,8.23
2024-02-14T09:16:58.322Z,5.75
2024-02-14T09:20:01.288Z,7.40
2024-02-14T09:23:04.698Z,6.60
2024-02-14T09:26:07.518Z,6.90
2024-02-14T09:29:12.162Z,5.63
2024-02-14T09:32:14.908Z,4.63
2024-02-14T09:35:17.263Z,4.90
2024-02-14T09:38:19.357Z,5.43
2024-02-14T09:41:35.043Z,4.30
2024-02-14T09:44:39.418Z,3.20
2024-02-14T09:47:43.410Z,3.90
2024-02-14T09:50:49.287Z,3.80
2024-02-14T09:53:51.980Z,3.72
2024-02-14T09:56:55.201Z,3.20
2024-02-14T09:59:58.411Z,3.10
2024-02-14T10:03:01.040Z,2.72
2024-02-14T10:06:05.687Z,4.47
2024-02-14T10:09:09.113Z,3.00
2024-02-14T10:12:12.003Z,3.75
2024-02-14T10:15:14.382Z,3.75
2024-02-14T10:18:18.005Z,4.03
2024-02-14T10:21:20.684Z,4.57
2024-02-14T10:24:23.202Z,5.10
2024-02-14T10:27:26.886Z,3.47
2024-02-14T10:30:29.027Z,3.20
2024-02-14T10:33:31.521Z,3.05
2024-02-14T10:36:36.868Z,3.42
2024-02-14T10:39:42.791Z,2.92
2024-02-14T10:42:45.172Z,3.63
2024-02-14T10:45:47.661Z,3.20
2024-02-14T10:48:59.869Z,3.17
2024-02-14T10:52:08.130Z,3.00
2024-02-14T10:55:12.563Z,3.67
2024-02-14T10:58:17.672Z,3.88
2024-02-14T11:01:21.832Z,2.85
2024-02-14T11:04:24.350Z,2.55
2024-02-14T11:07:29.850Z,2.70
2024-02-14T11:10:39.132Z,2.85
2024-02-14T11:16:46.666Z,2.97
2024-02-14T11:19:49.025Z,2.90
2024-02-14T11:23:04.588Z,3.00
2024-02-14T11:26:09.611Z,2.28
2024-02-14T11:29:20.556Z,2.63
2024-02-14T11:32:26.254Z,2.97
2024-02-14T11:35:29.007Z,3.22
2024-02-14T11:38:31.252Z,3.55
2024-02-14T11:41:39.225Z,3.97
2024-02-14T11:44:44.174Z,4.25
2024-02-14T11:47:47.583Z,4.22
2024-02-14T11:50:49.934Z,4.90
2024-02-14T11:53:52.659Z,4.00
2024-02-14T11:56:55.025Z,3.88
2024-02-14T11:59:59.314Z,3.78
2024-02-14T12:03:02.211Z,4.18
2024-02-14T12:06:05.047Z,3.90
2024-02-14T12:09:08.293Z,4.57
2024-02-14T12:12:10.704Z,3.88
2024-02-14T12:15:14.823Z,2.92
2024-02-14T12:18:22.622Z,3.00
2024-02-14T12:21:27.333Z,2.95
2024-02-14T12:24:32.530Z,2.67
2024-02-14T12:27:35.461Z,2.50
2024-02-14T12:30:48.136Z,2.60
2024-02-14T12:33:51.030Z,2.50
2024-02-14T12:36:53.489Z,2.25
2024-02-14T12:39:56.635Z,7.60
2024-02-14T12:42:59.407Z,2.30
2024-02-14T12:46:01.574Z,2.38
2024-02-14T12:49:04.911Z,2.30
2024-02-14T12:52:07.589Z,2.22
2024-02-14T12:55:09.934Z,2.83
2024-02-14T12:58:12.291Z,2.60
2024-02-14T13:01:16.067Z,2.40
2024-02-14T13:04:18.735Z,2.63
2024-02-14T13:07:21.095Z,3.10
2024-02-14T13:10:24.263Z,2.22
2024-02-14T13:13:26.469Z,3.08
2024-02-14T13:16:28.537Z,4.35
2024-02-14T13:19:31.138Z,4.50
2024-02-14T13:22:34.205Z,3.47
2024-02-14T13:25:37.526Z,2.72
2024-02-14T13:28:41.783Z,2.88
2024-02-14T13:31:43.973Z,3.38
2024-02-14T13:34:46.166Z,3.03
2024-02-14T13:37:48.741Z,3.00
2024-02-14T13:40:50.933Z,3.70
2024-02-14T13:43:53.366Z,2.92
2024-02-14T13:46:55.686Z,3.40
2024-02-14T13:49:58.446Z,3.10
2024-02-14T13:53:00.921Z,2.75
2024-02-14T13:56:03.329Z,3.05
2024-02-14T13:59:05.730Z,3.70
2024-02-14T14:02:10.717Z,2.90
2024-02-14T14:05:15.647Z,3.90
2024-02-14T14:08:19.588Z,2.28
2024-02-14T14:11:22.047Z,2.00
2024-02-14T14:14:27.817Z,2.67
2024-02-14T14:17:30.036Z,2.45
2024-02-14T14:20:32.152Z,2.47
2024-02-14T14:23:34.728Z,2.58
2024-02-14T14:26:36.920Z,2.30
2024-02-14T14:29:39.062Z,2.67
2024-02-14T14:32:41.742Z,2.80
2024-02-14T14:35:44.361Z,3.75
2024-02-14T14:38:46.656Z,3.15
2024-02-14T14:41:48.766Z,3.75
2024-02-14T14:44:51.351Z,3.70
2024-02-14T14:47:54.905Z,4.03
2024-02-14T14:50:57.161Z,3.80
2024-02-14T14:53:59.323Z,6.25
2024-02-14T14:57:05.315Z,4.43
2024-02-14T15:00:10.973Z,5.10
2024-02-14T15:03:13.871Z,4.28
2024-02-14T15:06:16.748Z,4.40
2024-02-14T15:09:19.019Z,4.05
2024-02-14T15:12:25.628Z,3.65
2024-02-14T15:15:27.859Z,4.47
2024-02-14T15:18:30.425Z,8.18
2024-02-14T15:21:34.595Z,5.55
2024-02-14T15:24:39.338Z,8.18
2024-02-14T15:27:45.363Z,4.00
2024-02-14T15:31:06.201Z,3.67
2024-02-14T15:34:08.634Z,4.70
2024-02-14T15:37:11.016Z,20.90
2024-02-14T15:40:13.776Z,3.83
2024-02-14T15:43:15.884Z,2.92
2024-02-14T15:46:18.763Z,4.75
2024-02-14T15:49:21.626Z,3.35
2024-02-14T15:52:23.688Z,10.85
2024-02-14T15:55:26.752Z,3.92
2024-02-14T15:58:29.148Z,9.40
2024-02-14T16:01:31.588Z,7.80
2024-02-14T16:04:34.210Z,6.47
2024-02-14T16:07:39.201Z,6.50
2024-02-14T16:10:42.737Z,10.45
2024-02-14T16:13:45.159Z,14.05
2024-02-14T16:16:47.287Z,13.90
2024-02-14T16:19:49.721Z,13.23
2024-02-14T16:22:51.918Z,11.93
2024-02-14T16:25:54.909Z,10.73
2024-02-14T16:28:57.312Z,8.52
2024-02-14T16:31:59.442Z,7.88
2024-02-14T16:35:02.975Z,6.13
2024-02-14T16:38:05.845Z,6.65
2024-02-14T16:41:08.162Z,6.95
2024-02-14T16:44:10.245Z,7.72
2024-02-14T16:47:13.092Z,6.72
2024-02-14T16:50:15.408Z,7.25
2024-02-14T16:53:17.816Z,6.03
2024-02-14T16:56:19.881Z,8.05
2024-02-14T16:59:24.954Z,7.57
2024-02-14T17:02:27.313Z,6.82
2024-02-14T17:05:29.623Z,6.30
2024-02-14T17:08:32.114Z,6.97
2024-02-14T17:11:34.500Z,5.85
2024-02-14T17:14:39.680Z,5.97
2024-02-14T17:17:43.945Z,5.70
2024-02-14T17:20:47.912Z,9.40
2024-02-14T17:23:50.099Z,7.50
2024-02-14T17:26:52.286Z,10.23
2024-02-14T17:29:54.879Z,10.10
2024-02-14T17:32:59.585Z,9.80
2024-02-14T17:36:01.958Z,13.55
2024-02-14T17:39:06.799Z,12.50
2024-02-14T17:42:09.377Z,9.70
2024-02-14T17:45:11.877Z,8.40
2024-02-14T17:48:14.416Z,7.97
2024-02-14T17:51:17.287Z,9.00
2024-02-14T17:54:20.531Z,8.60
2024-02-14T17:57:26.321Z,9.82
2024-02-14T18:00:29.475Z,8.40
2024-02-14T18:03:31.641Z,8.20
2024-02-14T18:06:34.925Z,9.18
2024-02-14T18:09:40.286Z,8.63
2024-02-14T18:12:42.393Z,9.57
2024-02-14T18:15:44.508Z,9.27
2024-02-14T18:18:47.753Z,9.00
2024-02-14T18:21:50.137Z,9.45
2024-02-14T18:24:52.575Z,9.77
2024-02-14T18:27:55.670Z,9.35
2024-02-14T18:30:59.920Z,10.65
2024-02-14T18:34:02.466Z,11.90
2024-02-14T18:37:04.874Z,12.13
2024-02-14T18:40:07.792Z,13.48
2024-02-14T18:43:09.957Z,7.78
2024-02-14T18:46:12.651Z,10.77
2024-02-14T18:49:15.168Z,8.43
2024-02-14T18:52:17.581Z,12.27
2024-02-14T18:55:20.000Z,12.18
2024-02-14T18:58:22.182Z,11.52
2024-02-14T19:01:26.932Z,10.15
2024-02-14T19:04:29.349Z,7.85
2024-02-14T19:07:32.155Z,16.75
2024-02-14T19:10:34.468Z,25.00
2024-02-14T19:13:36.545Z,15.15
2024-02-14T19:16:38.896Z,11.88
2024-02-14T19:19:41.322Z,8.18
2024-02-14T19:22:44.309Z,7.50
2024-02-14T19:25:46.911Z,8.27
2024-02-14T19:28:49.724Z,8.45
2024-02-14T19:31:52.004Z,7.93
2024-02-14T19:34:54.096Z,8.70
2024-02-14T19:37:56.395Z,8.55
2024-02-14T19:40:58.683Z,7.60
2024-02-14T19:44:01.093Z,8.18
2024-02-14T19:47:05.305Z,8.18
2024-02-14T19:50:10.629Z,8.10
2024-02-14T19:53:12.895Z,7.65
2024-02-14T19:56:15.092Z,7.75
2024-02-14T19:59:19.204Z,7.32
2024-02-14T20:02:21.564Z,7.68
2024-02-14T20:05:23.941Z,7.43
2024-02-14T20:08:27.068Z,8.15
2024-02-14T20:11:29.449Z,7.80
2024-02-14T20:14:31.540Z,8.65
2024-02-14T20:17:35.007Z,8.18
2024-02-14T20:20:37.336Z,7.95
2024-02-14T20:23:40.569Z,7.93
2024-02-14T20:26:44.060Z,8.25
2024-02-14T20:29:46.501Z,7.60
2024-02-14T20:32:48.801Z,7.65
2024-02-14T20:35:51.450Z,7.65
2024-02-14T20:38:56.722Z,8.30
2024-02-14T20:41:59.132Z,8.88
2024-02-14T20:45:01.743Z,8.55
2024-02-14T20:48:04.835Z,7.88
2024-02-14T20:51:07.126Z,8.15
2024-02-14T20:54:09.376Z,7.85
2024-02-14T20:57:11.527Z,7.28
2024-02-14T21:00:17.783Z,7.13
2024-02-14T21:03:20.490Z,7.85
2024-02-14T21:06:23.349Z,8.35
2024-02-14T21:09:25.598Z,9.10
2024-02-14T21:12:27.726Z,8.75
2024-02-14T21:15:30.685Z,8.73
2024-02-14T21:18:33.141Z,13.80
2024-02-14T21:21:37.003Z,13.07
2024-02-14T21:24:41.256Z,16.45
2024-02-14T21:27:46.767Z,17.25
2024-02-14T21:30:49.324Z,12.98
2024-02-14T21:33:51.668Z,17.85
2024-02-14T21:36:54.990Z,14.07
2024-02-14T21:39:58.464Z,12.93
2024-02-14T21:43:00.826Z,12.52
2024-02-14T21:46:03.512Z,10.93
2024-02-14T21:49:07.973Z,10.68
2024-02-14T21:52:11.088Z,9.60
2024-02-14T21:55:13.215Z,9.57
2024-02-14T21:58:15.526Z,10.15
2024-02-14T22:01:19.612Z,8.60
2024-02-14T22:04:23.309Z,9.20
2024-02-14T22:07:26.313Z,9.07
2024-02-14T22:10:28.882Z,10.02
2024-02-14T22:13:32.035Z,10.30
2024-02-14T22:16:34.379Z,11.80
2024-02-14T22:19:39.893Z,10.10
2024-02-14T22:22:42.311Z,10.70
2024-02-14T22:25:44.628Z,9.68
2024-02-14T22:28:46.971Z,9.20
2024-02-14T22:31:49.654Z,8.75
2024-02-14T22:34:52.268Z,9.88
2024-02-14T22:37:54.619Z,8.95
2024-02-14T22:40:57.005Z,8.50
2024-02-14T22:43:59.239Z,8.07
2024-02-14T22:47:01.503Z,8.73
2024-02-14T22:50:04.053Z,7.88
2024-02-14T22:53:06.152Z,7.78
2024-02-14T22:56:08.265Z,7.70
2024-02-14T22:59:10.854Z,7.60
2024-02-14T23:02:15.018Z,7.20
2024-02-14T23:05:22.968Z,7.60
2024-02-14T23:08:25.010Z,7.75
2024-02-14T23:11:27.633Z,9.02
2024-02-14T23:14:30.039Z,9.23
2024-02-14T23:17:32.476Z,8.77
2024-02-14T23:20:36.312Z,10.95
2024-02-14T23:23:38.962Z,9.40
2024-02-14T23:26:41.487Z,9.30
2024-02-14T23:29:43.838Z,8.25
2024-02-14T23:32:46.032Z,11.75
2024-02-14T23:35:48.585Z,10.48
2024-02-14T23:38:52.927Z,8.32
2024-02-14T23:41:56.492Z,7.25
2024-02-14T23:44:59.034Z,7.32
2024-02-14T23:48:01.606Z,7.32
2024-02-14T23:51:03.861Z,8.05
2024-02-14T23:54:07.148Z,8.85
2024-02-14T23:57:09.320Z,8.00
